Pagina principală
METAR-TAF:

METAR-TAF

Aeroporturi :

Pago Pago, Insulele Minore Îndepărtate ale Statelor Unite

Latitudine: 14-20S, longitudine: 170-43W, elevație: 3 m

Observații meteo curente

Raportul a fost făcut în urmă cu 32 de minute, la 07:50 UTC
Vânt calm
Temperatură 27°C
Umiditate 84%
Presiune 1010 hPa
Vizibilitate: 16.1 km
Cer senin

METAR: NSTU 240750Z 00000KT 10SM SKC 27/24 A2982 RMK SLP100 T02700237

Ora: 21:22 (08:22 UTC)

Prognoză

Raportul a fost făcut în urmă cu 3 ore și 2 de minute, la 05:20 UTC
Prognoză valabilă de la 24 ora 06 UTC la 25 ora 06 UTC
Vânt 8 kt de la Est
Vizibilitate: 10 km
Nori puțini la o înălțime de 2000 picior
Nori împrăștiați la o înălțime de 4000 picior
averse în apropiere,

TAF: NSTU 240520Z 2406/2506 09008KT P6SM VCSH FEW020 SCT040

Observații și prognoze meteo pentru peste 4.000 de aeroporturi (rapoarte METAR și TAF).

Stațiile disponibile sunt reprezentate pe hartă prin puncte galbene și roșii.

Țineți indicatorul mouse-ului pe punctul dorit pentru a vedea denumirea stației.

Apoi, faceți clic pentru a vedea observațiile și prognozele meteorologice.

Pentru a schimba harta: Pentru mărire, faceți clic pe butoanele verzi cu cruce neagră; pentru micșorare, pe butonul verde cu o liniuță; pentru hărți învecinate, pe săgețile verzi.


METAR-TAF: